Time;durP1;ratioP1;P1;durP2;ratioP2;P2;SDS_P1;SDS_P2;PMS_P1;PMS_P2;Temp;Humidity;BMP_temperature;BMP_pressure;BME280_temperature;BME280_humidity;BME280_pressure;Samples;Min_cycle;Max_cycle;Signal;HPM_P1;HPM_P2
2021/06/28 00:00:45;;;;;;;7.13;5.37;;;21.00;99.90;;;;;;4905044;29;20718;-89
2021/06/28 00:03:11;;;;;;;6.07;5.47;;;21.00;99.90;;;;;;4917326;29;20274;-90
2021/06/28 00:05:37;;;;;;;9.27;5.87;;;20.80;99.90;;;;;;4907795;29;20211;-90
2021/06/28 00:08:03;;;;;;;9.30;5.77;;;20.80;99.90;;;;;;4903713;29;20245;-88
2021/06/28 00:10:31;;;;;;;9.60;5.67;;;20.70;99.90;;;;;;4916251;29;20241;-91
2021/06/28 00:12:59;;;;;;;6.90;5.33;;;20.70;99.90;;;;;;4904486;29;21604;-90
2021/06/28 00:15:31;;;;;;;7.10;5.90;;;20.60;99.90;;;;;;4920585;29;20196;-90
2021/06/28 00:17:57;;;;;;;9.90;5.83;;;20.80;99.90;;;;;;4918520;29;20227;-90
2021/06/28 00:20:23;;;;;;;7.27;5.90;;;20.70;99.90;;;;;;4918780;29;20654;-91
2021/06/28 00:22:49;;;;;;;7.43;6.03;;;20.70;99.90;;;;;;4902138;29;20235;-90
2021/06/28 00:25:20;;;;;;;7.83;6.10;;;20.70;99.90;;;;;;4926241;29;20194;-92
2021/06/28 00:27:47;;;;;;;10.93;6.27;;;20.70;99.90;;;;;;4919768;29;20192;-91
2021/06/28 00:30:16;;;;;;;8.40;6.43;;;20.90;99.90;;;;;;4906973;29;20187;-87
2021/06/28 00:32:42;;;;;;;7.73;6.30;;;20.90;99.90;;;;;;4915009;29;20203;-90
2021/06/28 00:35:09;;;;;;;8.73;6.33;;;20.80;99.90;;;;;;4929853;29;20192;-89
2021/06/28 00:37:36;;;;;;;9.23;6.50;;;20.70;99.90;;;;;;4908323;29;20219;-89
2021/06/28 00:40:03;;;;;;;8.83;7.13;;;20.90;99.90;;;;;;4917390;29;20191;-87
2021/06/28 00:42:29;;;;;;;9.60;6.87;;;20.90;99.90;;;;;;4914117;29;20281;-91
2021/06/28 00:44:55;;;;;;;8.90;6.90;;;20.80;99.90;;;;;;4906196;29;20218;-87
2021/06/28 00:47:21;;;;;;;8.00;6.73;;;20.70;99.90;;;;;;4906235;29;20184;-89
2021/06/28 00:49:47;;;;;;;10.03;7.07;;;20.70;99.90;;;;;;4919011;29;20190;-90
2021/06/28 00:52:14;;;;;;;9.43;6.73;;;20.90;99.90;;;;;;4913900;29;20226;-91
2021/06/28 00:54:39;;;;;;;9.37;7.10;;;20.80;99.90;;;;;;4917145;29;20235;-91
2021/06/28 00:57:05;;;;;;;10.10;7.23;;;20.70;99.90;;;;;;4905915;29;20215;-90
2021/06/28 00:59:32;;;;;;;10.37;7.03;;;20.60;99.90;;;;;;4920037;29;20184;-90
2021/06/28 01:02:01;;;;;;;9.60;7.10;;;20.50;99.90;;;;;;4911121;29;20218;-90
2021/06/28 01:04:28;;;;;;;9.37;7.77;;;20.70;99.90;;;;;;4931077;29;20620;-89
2021/06/28 01:06:54;;;;;;;11.43;7.93;;;20.70;99.90;;;;;;4927890;29;20189;-91
2021/06/28 01:09:19;;;;;;;11.50;7.27;;;20.50;99.90;;;;;;4923368;29;20215;-91
2021/06/28 01:11:45;;;;;;;9.47;7.20;;;20.50;99.90;;;;;;4919536;29;20236;-89
2021/06/28 01:14:11;;;;;;;9.17;7.40;;;20.50;99.90;;;;;;4927659;29;20221;-91
2021/06/28 01:16:36;;;;;;;9.40;7.73;;;20.50;99.90;;;;;;4913254;29;20557;-91
2021/06/28 01:19:04;;;;;;;8.20;7.17;;;20.60;99.90;;;;;;4922144;29;20196;-90
2021/06/28 01:21:33;;;;;;;11.47;7.67;;;20.50;99.90;;;;;;4921502;29;20626;-90
2021/06/28 01:24:00;;;;;;;9.80;8.13;;;20.50;99.90;;;;;;4911563;29;20556;-89
2021/06/28 01:26:26;;;;;;;8.83;7.20;;;20.50;99.90;;;;;;4918397;29;20245;-89
2021/06/28 01:28:52;;;;;;;10.63;7.77;;;20.40;99.90;;;;;;4927380;29;20257;-90
2021/06/28 01:31:18;;;;;;;9.73;7.23;;;20.30;99.90;;;;;;4916248;29;20203;-91
2021/06/28 01:33:43;;;;;;;9.87;7.60;;;20.20;99.90;;;;;;4909494;29;20244;-91
2021/06/28 01:36:09;;;;;;;10.07;8.27;;;20.20;99.90;;;;;;4931372;29;20195;-90
2021/06/28 01:38:35;;;;;;;12.00;7.93;;;20.30;99.90;;;;;;4911013;29;20769;-89
2021/06/28 01:41:01;;;;;;;12.60;7.93;;;20.20;99.90;;;;;;4907868;29;20181;-89
2021/06/28 01:43:26;;;;;;;10.67;8.23;;;20.30;99.90;;;;;;4924739;29;20196;-90
2021/06/28 01:45:54;;;;;;;10.47;7.67;;;20.40;99.90;;;;;;4916909;29;20182;-91
2021/06/28 01:48:20;;;;;;;11.57;7.77;;;20.40;99.90;;;;;;4913888;29;20199;-90
2021/06/28 01:50:46;;;;;;;10.87;7.53;;;20.30;99.90;;;;;;4918506;29;20191;-89
2021/06/28 01:53:12;;;;;;;13.10;7.73;;;20.30;99.90;;;;;;4924143;29;20184;-89
2021/06/28 01:55:38;;;;;;;11.17;7.43;;;20.20;99.90;;;;;;4911965;29;20187;-90
2021/06/28 01:58:06;;;;;;;10.77;7.30;;;20.20;99.90;;;;;;4930702;29;20242;-91
2021/06/28 02:00:33;;;;;;;8.03;7.03;;;20.10;99.90;;;;;;4903807;29;20310;-91
2021/06/28 02:03:12;;;;;;;8.83;7.20;;;20.00;99.90;;;;;;4921295;29;20302;-90
2021/06/28 02:05:40;;;;;;;9.67;7.57;;;20.00;99.90;;;;;;4911629;29;20224;-91
2021/06/28 02:08:08;;;;;;;10.53;7.70;;;20.00;99.90;;;;;;4908396;29;20268;-90
2021/06/28 02:10:39;;;;;;;8.07;6.87;;;20.00;99.90;;;;;;4917179;29;20738;-91
2021/06/28 02:13:05;;;;;;;11.53;7.93;;;20.00;99.90;;;;;;4910769;29;20188;-86
2021/06/28 02:15:31;;;;;;;11.00;8.17;;;20.00;99.90;;;;;;4916264;29;20665;-90
2021/06/28 02:18:01;;;;;;;11.07;7.90;;;20.10;99.90;;;;;;4910376;29;20217;-90
2021/06/28 02:20:28;;;;;;;10.97;8.87;;;19.90;99.90;;;;;;4920066;29;20198;-91
2021/06/28 02:23:36;;;;;;;8.93;7.90;;;19.90;99.90;;;;;;4919899;29;20198;-89
2021/06/28 02:26:12;;;;;;;9.90;8.07;;;19.90;99.90;;;;;;4887493;29;20191;-91
2021/06/28 02:28:46;;;;;;;9.90;8.17;;;19.90;99.90;;;;;;4910567;29;20204;-90
2021/06/28 02:31:14;;;;;;;10.63;8.20;;;19.90;99.90;;;;;;4904616;29;20200;-91
2021/06/28 02:33:42;;;;;;;9.53;7.63;;;20.00;99.90;;;;;;4914979;29;20192;-91
2021/06/28 02:36:09;;;;;;;12.60;8.33;;;20.10;99.90;;;;;;4919596;29;20662;-90
2021/06/28 02:38:39;;;;;;;12.93;8.80;;;20.00;99.90;;;;;;4928636;29;20215;-89
2021/06/28 02:41:07;;;;;;;10.63;8.67;;;20.00;99.90;;;;;;4902611;29;20182;-87
2021/06/28 02:43:36;;;;;;;9.83;7.83;;;19.90;99.90;;;;;;4922307;29;20190;-91
2021/06/28 02:46:02;;;;;;;11.00;8.97;;;19.90;99.90;;;;;;4908394;29;20197;-90
2021/06/28 02:48:28;;;;;;;12.10;8.80;;;20.00;99.90;;;;;;4902670;29;20176;-90
2021/06/28 02:51:00;;;;;;;13.97;8.50;;;19.90;99.90;;;;;;4915266;29;20195;-91
2021/06/28 02:53:26;;;;;;;12.07;8.33;;;19.80;99.90;;;;;;4905299;29;20272;-90
2021/06/28 02:56:12;;;;;;;13.90;8.77;;;19.70;99.90;;;;;;4918410;29;20196;-90
2021/06/28 02:58:52;;;;;;;11.17;8.80;;;19.70;99.90;;;;;;4921325;29;20301;-90
2021/06/28 03:01:22;;;;;;;12.57;8.43;;;19.60;99.90;;;;;;4923106;29;20258;-90
2021/06/28 03:03:50;;;;;;;12.40;8.70;;;19.60;99.90;;;;;;4902366;29;20194;-90
2021/06/28 03:06:18;;;;;;;11.00;8.67;;;19.60;99.90;;;;;;4915615;29;20196;-90
2021/06/28 03:08:44;;;;;;;15.03;8.63;;;19.60;99.90;;;;;;4932341;29;20203;-90
2021/06/28 03:11:14;;;;;;;11.60;7.60;;;19.60;99.90;;;;;;4919186;29;20206;-89
2021/06/28 03:13:41;;;;;;;11.97;8.30;;;19.70;99.90;;;;;;4921194;29;20183;-90
2021/06/28 03:16:07;;;;;;;10.17;7.43;;;19.60;99.90;;;;;;4909118;29;20180;-88
2021/06/28 03:18:36;;;;;;;11.87;8.23;;;19.70;99.90;;;;;;4925517;29;20217;-90
2021/06/28 03:21:07;;;;;;;12.27;7.90;;;19.60;99.90;;;;;;4920405;29;20185;-89
2021/06/28 03:23:36;;;;;;;11.53;7.97;;;19.60;99.90;;;;;;4925209;29;20198;-91
2021/06/28 03:26:05;;;;;;;9.63;7.73;;;19.50;99.90;;;;;;4919364;29;20187;-90
2021/06/28 03:28:32;;;;;;;10.50;8.27;;;19.60;99.90;;;;;;4936704;29;20251;-90
2021/06/28 03:30:59;;;;;;;11.50;7.57;;;19.60;99.90;;;;;;4920851;29;20199;-91
2021/06/28 03:33:25;;;;;;;11.80;7.97;;;19.60;99.90;;;;;;4913806;29;20194;-91
2021/06/28 03:35:52;;;;;;;10.70;8.07;;;19.60;99.90;;;;;;4928464;29;20241;-90
2021/06/28 03:38:18;;;;;;;9.63;8.20;;;19.50;99.90;;;;;;4908586;29;20212;-91
2021/06/28 03:40:44;;;;;;;10.00;8.27;;;19.50;99.90;;;;;;4911134;29;20191;-90
2021/06/28 03:43:11;;;;;;;10.83;8.53;;;19.60;99.90;;;;;;4920501;29;20210;-89
2021/06/28 03:45:38;;;;;;;12.33;8.60;;;19.70;99.90;;;;;;4925666;29;20182;-91
2021/06/28 03:48:06;;;;;;;12.63;8.63;;;19.70;99.90;;;;;;4919332;29;20190;-90
2021/06/28 03:50:38;;;;;;;11.20;8.20;;;19.60;99.90;;;;;;4911517;29;20179;-90
2021/06/28 03:53:04;;;;;;;15.00;8.10;;;19.60;99.90;;;;;;4919739;29;20656;-90
2021/06/28 03:55:30;;;;;;;8.77;7.73;;;19.60;99.90;;;;;;4910376;29;20181;-91
2021/06/28 03:57:56;;;;;;;9.23;7.50;;;19.70;99.90;;;;;;4921439;29;20229;-89
2021/06/28 04:00:23;;;;;;;9.93;7.53;;;19.70;99.90;;;;;;4906705;29;20195;-90
2021/06/28 04:02:49;;;;;;;13.73;7.77;;;19.70;99.90;;;;;;4913905;29;20182;-89
2021/06/28 04:05:21;;;;;;;13.20;8.13;;;19.80;99.90;;;;;;4912695;29;20196;-89
2021/06/28 04:07:47;;;;;;;9.40;8.00;;;20.00;99.90;;;;;;4903554;29;20183;-90
2021/06/28 04:10:14;;;;;;;11.13;8.90;;;20.00;99.90;;;;;;4919366;29;20206;-90
2021/06/28 04:12:40;;;;;;;11.13;8.53;;;20.00;99.90;;;;;;4930325;29;20269;-90
2021/06/28 04:15:11;;;;;;;13.10;7.53;;;19.90;99.90;;;;;;4924394;29;20630;-90
2021/06/28 04:17:41;;;;;;;11.50;8.47;;;19.80;99.90;;;;;;4915832;29;20228;-91
2021/06/28 04:20:09;;;;;;;12.70;7.93;;;19.90;99.90;;;;;;4922128;29;20194;-90
2021/06/28 04:22:35;;;;;;;13.27;8.77;;;19.90;99.90;;;;;;4903317;29;20178;-92
2021/06/28 04:25:01;;;;;;;11.17;8.50;;;19.90;99.90;;;;;;4932408;29;20189;-89
2021/06/28 04:27:26;;;;;;;10.97;7.60;;;19.90;99.90;;;;;;4905624;29;20183;-81
2021/06/28 04:29:52;;;;;;;12.27;8.60;;;19.90;99.90;;;;;;4917313;29;20179;-81
2021/06/28 04:32:17;;;;;;;9.50;7.60;;;20.00;99.90;;;;;;4920463;29;20191;-83
2021/06/28 04:34:46;;;;;;;11.20;7.97;;;20.00;99.90;;;;;;4904912;29;20279;-80
2021/06/28 04:37:12;;;;;;;10.73;8.23;;;20.20;99.90;;;;;;4917734;29;20222;-81
2021/06/28 04:39:39;;;;;;;10.63;8.30;;;20.30;99.90;;;;;;4910371;29;20193;-91
2021/06/28 04:42:05;;;;;;;12.00;8.37;;;20.40;99.90;;;;;;4923873;29;20199;-90
2021/06/28 04:44:31;;;;;;;13.20;8.33;;;20.60;99.90;;;;;;4912753;29;20181;-89
2021/06/28 04:46:56;;;;;;;10.10;8.20;;;20.60;99.90;;;;;;4922444;29;20331;-90
2021/06/28 04:49:22;;;;;;;9.43;8.00;;;20.70;99.90;;;;;;4916744;29;20270;-90
2021/06/28 04:51:47;;;;;;;9.57;8.23;;;20.60;99.90;;;;;;4924888;29;20674;-90
2021/06/28 04:54:13;;;;;;;13.83;8.17;;;20.80;99.90;;;;;;4917770;29;20216;-85
2021/06/28 04:56:39;;;;;;;9.83;7.90;;;20.90;99.90;;;;;;4920633;29;20183;-90
2021/06/28 04:59:04;;;;;;;11.30;8.10;;;21.10;99.90;;;;;;4905328;29;20682;-80
2021/06/28 05:01:30;;;;;;;10.00;8.80;;;21.10;99.90;;;;;;4920689;29;20179;-81
2021/06/28 05:03:55;;;;;;;13.70;8.47;;;21.00;99.90;;;;;;4920226;29;20213;-80
2021/06/28 05:06:21;;;;;;;9.67;7.83;;;20.80;99.90;;;;;;4912301;29;20176;-81
2021/06/28 05:08:47;;;;;;;10.53;7.70;;;20.80;99.90;;;;;;4919583;29;20204;-81
2021/06/28 05:11:12;;;;;;;10.70;8.50;;;21.00;99.90;;;;;;4907067;29;20653;-81
2021/06/28 05:13:38;;;;;;;10.73;7.83;;;20.90;99.90;;;;;;4894306;29;20204;-90
2021/06/28 05:16:04;;;;;;;13.37;8.63;;;20.90;99.90;;;;;;4906339;29;20187;-90
2021/06/28 05:18:29;;;;;;;12.73;7.97;;;20.90;99.90;;;;;;4924014;29;20228;-89
2021/06/28 05:20:55;;;;;;;12.37;7.87;;;21.00;99.90;;;;;;4911119;29;20201;-87
2021/06/28 05:23:20;;;;;;;11.47;8.57;;;20.90;99.90;;;;;;4909724;29;20286;-87
2021/06/28 05:25:47;;;;;;;12.63;7.70;;;20.90;99.90;;;;;;4915906;29;20204;-90
2021/06/28 05:28:12;;;;;;;12.47;7.80;;;21.00;99.90;;;;;;4925735;29;20183;-88
2021/06/28 05:30:38;;;;;;;10.37;7.93;;;21.00;99.90;;;;;;4915085;29;20182;-89
2021/06/28 05:33:04;;;;;;;11.10;8.53;;;21.10;99.90;;;;;;4910716;29;20187;-89
2021/06/28 05:35:30;;;;;;;11.20;8.20;;;21.30;99.90;;;;;;4919158;29;20188;-88
2021/06/28 05:37:55;;;;;;;15.80;8.37;;;21.60;99.90;;;;;;4918867;29;20212;-90
2021/06/28 05:40:21;;;;;;;12.20;8.20;;;21.50;99.90;;;;;;4915693;29;20192;-90
2021/06/28 05:42:47;;;;;;;12.60;7.77;;;21.60;99.90;;;;;;4906226;29;20189;-89
2021/06/28 05:45:13;;;;;;;10.30;8.10;;;21.60;99.90;;;;;;4924269;29;20180;-90
2021/06/28 05:47:39;;;;;;;8.90;7.90;;;21.40;99.90;;;;;;4928285;29;20196;-91
2021/06/28 05:50:07;;;;;;;11.10;8.27;;;21.30;99.90;;;;;;4919423;29;20195;-92
2021/06/28 05:52:33;;;;;;;11.70;8.57;;;21.60;99.90;;;;;;4926349;29;20188;-91
2021/06/28 05:55:00;;;;;;;11.23;8.57;;;21.80;99.90;;;;;;4928276;29;20270;-90
2021/06/28 05:57:25;;;;;;;11.10;9.03;;;22.10;99.90;;;;;;4915800;29;20204;-91
2021/06/28 05:59:52;;;;;;;11.80;8.90;;;21.80;99.90;;;;;;4916354;29;20181;-90
2021/06/28 06:02:18;;;;;;;11.43;8.73;;;21.70;99.90;;;;;;4934215;29;20195;-89
2021/06/28 06:04:45;;;;;;;11.80;9.23;;;21.70;99.90;;;;;;4929619;29;20190;-90
2021/06/28 06:07:11;;;;;;;12.30;8.57;;;22.00;99.90;;;;;;4925188;29;20201;-91
2021/06/28 06:09:37;;;;;;;14.67;9.20;;;22.20;99.90;;;;;;4926753;29;20239;-89
2021/06/28 06:12:03;;;;;;;11.77;9.13;;;22.20;99.90;;;;;;4912681;29;20226;-84
2021/06/28 06:14:29;;;;;;;14.00;9.37;;;22.20;99.90;;;;;;4934761;29;20195;-84
2021/06/28 06:16:54;;;;;;;10.10;8.87;;;22.30;99.90;;;;;;4910047;29;20224;-84
2021/06/28 06:19:20;;;;;;;12.43;9.40;;;22.30;99.90;;;;;;4921245;29;20184;-84
2021/06/28 06:21:46;;;;;;;12.47;9.53;;;22.40;99.90;;;;;;4926584;29;20701;-84
2021/06/28 06:24:11;;;;;;;11.70;9.10;;;22.40;99.90;;;;;;4918418;29;20188;-84
2021/06/28 06:26:38;;;;;;;14.43;8.70;;;22.60;99.90;;;;;;4905171;29;20200;-87
2021/06/28 06:29:04;;;;;;;16.20;9.10;;;22.70;99.90;;;;;;4909779;29;20180;-83
2021/06/28 06:31:30;;;;;;;12.63;9.13;;;22.90;99.90;;;;;;4909399;29;20187;-83
2021/06/28 06:33:55;;;;;;;10.50;8.40;;;23.10;99.90;;;;;;4912615;29;20187;-83
2021/06/28 06:36:21;;;;;;;11.83;9.53;;;23.20;99.90;;;;;;4918489;29;20233;-83
2021/06/28 06:38:47;;;;;;;13.07;8.50;;;23.10;99.90;;;;;;4916167;29;20213;-83
2021/06/28 06:41:13;;;;;;;12.07;8.77;;;23.00;99.90;;;;;;4912586;29;20583;-84
2021/06/28 06:43:38;;;;;;;13.60;9.17;;;22.90;99.90;;;;;;4916918;29;20555;-83
2021/06/28 06:46:05;;;;;;;11.97;8.47;;;23.00;99.90;;;;;;4915660;29;20202;-83
2021/06/28 06:48:31;;;;;;;12.00;8.83;;;23.00;99.90;;;;;;4910701;29;20234;-83
2021/06/28 06:50:57;;;;;;;14.90;9.63;;;23.00;99.90;;;;;;4917006;29;20226;-83
2021/06/28 06:53:23;;;;;;;11.33;8.47;;;23.20;99.90;;;;;;4920039;29;20183;-83
2021/06/28 06:55:49;;;;;;;13.43;9.13;;;23.40;99.90;;;;;;4914345;29;20187;-83
2021/06/28 06:58:14;;;;;;;12.97;9.33;;;23.50;99.90;;;;;;4913002;29;20246;-84
2021/06/28 07:00:42;;;;;;;12.43;9.13;;;23.50;99.90;;;;;;4917346;29;20696;-83
2021/06/28 07:03:08;;;;;;;16.20;9.33;;;23.60;99.90;;;;;;4917872;29;20625;-83
2021/06/28 07:05:34;;;;;;;13.40;9.47;;;23.70;99.90;;;;;;4921986;29;20184;-83
2021/06/28 07:08:00;;;;;;;11.43;8.77;;;23.60;99.90;;;;;;4917962;29;20208;-83
2021/06/28 07:10:25;;;;;;;14.33;9.87;;;23.50;99.90;;;;;;4920204;29;20195;-83
2021/06/28 07:12:51;;;;;;;15.80;9.60;;;23.50;99.90;;;;;;4916951;29;20192;-83
2021/06/28 07:15:18;;;;;;;12.67;8.87;;;23.60;99.90;;;;;;4922181;29;20646;-84
2021/06/28 07:17:45;;;;;;;19.97;9.63;;;23.70;99.90;;;;;;4906967;29;20229;-84
2021/06/28 07:20:13;;;;;;;16.97;10.63;;;23.80;99.90;;;;;;4916529;29;20199;-83
2021/06/28 07:22:39;;;;;;;18.57;11.53;;;23.90;99.90;;;;;;4922650;29;20181;-84
2021/06/28 07:25:08;;;;;;;18.97;11.23;;;23.90;99.90;;;;;;4927588;29;20605;-83
2021/06/28 07:27:34;;;;;;;20.63;12.43;;;23.80;99.90;;;;;;4924697;29;20190;-84
2021/06/28 07:30:00;;;;;;;23.47;11.73;;;23.70;99.90;;;;;;4922696;29;20715;-84
2021/06/28 07:32:25;;;;;;;19.33;11.87;;;23.80;99.90;;;;;;4918972;29;20222;-83
2021/06/28 07:34:51;;;;;;;23.67;15.67;;;23.90;99.90;;;;;;4925125;29;20180;-84
2021/06/28 07:37:17;;;;;;;21.70;16.07;;;24.20;99.90;;;;;;4912220;29;20681;-83
2021/06/28 07:39:42;;;;;;;22.90;15.37;;;24.20;99.90;;;;;;4918995;29;20554;-83
2021/06/28 07:42:08;;;;;;;20.27;14.00;;;24.20;99.90;;;;;;4923336;29;20209;-83
2021/06/28 07:44:33;;;;;;;28.37;17.50;;;24.00;99.90;;;;;;4906317;29;20190;-83
2021/06/28 07:46:59;;;;;;;25.80;17.30;;;23.90;99.90;;;;;;4924379;29;20704;-84
2021/06/28 07:49:25;;;;;;;29.77;17.97;;;23.70;99.90;;;;;;4918579;29;20199;-83
2021/06/28 07:51:50;;;;;;;31.10;19.57;;;23.70;99.90;;;;;;4904914;29;20609;-83
2021/06/28 07:54:17;;;;;;;28.33;16.70;;;23.60;99.90;;;;;;4914288;29;20216;-84
2021/06/28 07:56:44;;;;;;;25.13;16.73;;;23.60;99.90;;;;;;4929699;29;20668;-83
2021/06/28 07:59:10;;;;;;;28.23;18.17;;;23.50;99.90;;;;;;4907951;29;20199;-83
2021/06/28 08:01:36;;;;;;;26.17;17.23;;;23.50;99.90;;;;;;4919686;29;20198;-83
2021/06/28 08:04:01;;;;;;;28.27;17.60;;;23.60;99.90;;;;;;4921284;29;20650;-83
2021/06/28 08:06:27;;;;;;;23.07;15.20;;;23.60;99.90;;;;;;4915732;29;20203;-83
2021/06/28 08:08:54;;;;;;;20.70;13.43;;;23.60;99.90;;;;;;4909408;29;20206;-83
2021/06/28 08:11:23;;;;;;;19.83;12.93;;;23.60;99.90;;;;;;4900485;29;20212;-84
2021/06/28 08:13:52;;;;;;;19.40;12.47;;;23.60;99.90;;;;;;4917000;29;20177;-83
2021/06/28 08:16:19;;;;;;;18.60;12.80;;;23.70;99.90;;;;;;4916594;29;20296;-84
2021/06/28 08:18:51;;;;;;;21.00;12.93;;;23.60;99.90;;;;;;4922382;29;20227;-83
2021/06/28 08:21:18;;;;;;;19.83;12.97;;;23.70;99.90;;;;;;4917132;29;20716;-84
2021/06/28 08:23:44;;;;;;;21.70;13.77;;;23.70;99.90;;;;;;4907992;29;20211;-83
2021/06/28 08:26:10;;;;;;;14.73;9.90;;;23.90;99.90;;;;;;4916588;29;20626;-83
2021/06/28 08:28:36;;;;;;;16.07;8.63;;;23.70;99.90;;;;;;4908713;29;20196;-83
2021/06/28 08:31:02;;;;;;;14.10;8.20;;;23.70;99.90;;;;;;4913441;29;20172;-83
2021/06/28 08:33:28;;;;;;;14.23;7.87;;;23.70;99.90;;;;;;4915107;29;20196;-83
2021/06/28 08:35:55;;;;;;;15.33;7.83;;;23.70;99.90;;;;;;4914782;29;20596;-83
2021/06/28 08:38:21;;;;;;;11.33;8.37;;;23.70;99.90;;;;;;4901982;29;20220;-84
2021/06/28 08:40:48;;;;;;;13.77;7.03;;;23.60;99.90;;;;;;4908952;29;20176;-83
2021/06/28 08:43:13;;;;;;;9.53;7.03;;;24.00;99.90;;;;;;4918257;29;20184;-84
2021/06/28 08:45:42;;;;;;;10.87;6.70;;;24.20;99.90;;;;;;4910451;29;20249;-83
2021/06/28 08:48:09;;;;;;;12.57;7.27;;;24.20;99.90;;;;;;4917639;29;20187;-83
2021/06/28 08:50:39;;;;;;;8.20;6.03;;;24.10;99.90;;;;;;4923035;29;20210;-84
2021/06/28 08:53:07;;;;;;;9.80;6.77;;;24.10;99.90;;;;;;4910923;29;20222;-83
2021/06/28 08:55:34;;;;;;;10.00;5.97;;;24.20;99.90;;;;;;4915879;29;20183;-83
2021/06/28 08:58:02;;;;;;;10.73;7.40;;;24.50;99.90;;;;;;4919047;29;20234;-83
2021/06/28 09:00:28;;;;;;;10.03;6.90;;;24.60;99.90;;;;;;4923770;29;20187;-83
2021/06/28 09:02:55;;;;;;;14.77;7.80;;;24.60;99.90;;;;;;4907085;29;20698;-83
2021/06/28 09:05:21;;;;;;;14.33;8.17;;;24.60;99.90;;;;;;4902217;29;20256;-83
2021/06/28 09:07:47;;;;;;;13.80;7.87;;;24.60;99.90;;;;;;4906581;29;20220;-83
2021/06/28 09:10:41;;;;;;;12.00;7.70;;;24.50;99.90;;;;;;4917039;29;20203;-83
2021/06/28 09:13:07;;;;;;;12.80;7.53;;;24.40;99.90;;;;;;4912310;29;20291;-83
2021/06/28 09:15:38;;;;;;;11.77;6.07;;;24.30;99.90;;;;;;4912894;29;20230;-83
2021/06/28 09:18:26;;;;;;;10.97;6.10;;;24.30;99.90;;;;;;4909078;29;20747;-83
2021/06/28 09:21:08;;;;;;;9.63;6.40;;;24.20;99.90;;;;;;4921174;29;20184;-83
2021/06/28 09:23:39;;;;;;;10.43;6.43;;;24.10;99.90;;;;;;4905820;29;20565;-83
2021/06/28 09:26:11;;;;;;;8.90;5.97;;;24.20;99.90;;;;;;4913443;29;20197;-82
2021/06/28 09:28:41;;;;;;;9.23;6.87;;;24.00;99.90;;;;;;4936277;29;20180;-83
2021/06/28 09:31:09;;;;;;;8.93;5.53;;;24.00;99.90;;;;;;4918019;29;20196;-84
2021/06/28 09:33:35;;;;;;;10.00;6.10;;;23.70;99.90;;;;;;4913454;29;20649;-84
2021/06/28 09:36:22;;;;;;;9.97;6.30;;;23.60;99.90;;;;;;4921943;29;20224;-84
2021/06/28 09:38:48;;;;;;;8.43;5.40;;;23.70;99.90;;;;;;4929772;29;20310;-84
2021/06/28 09:41:29;;;;;;;10.20;5.27;;;23.80;99.90;;;;;;4905394;29;20632;-83
2021/06/28 09:44:04;;;;;;;5.40;4.20;;;23.80;99.90;;;;;;4906105;29;20290;-84
2021/06/28 09:46:29;;;;;;;8.27;4.53;;;23.80;99.90;;;;;;4915065;29;20184;-84
2021/06/28 09:48:56;;;;;;;12.37;6.17;;;24.00;99.90;;;;;;4907448;29;20271;-84
2021/06/28 09:51:25;;;;;;;8.60;5.67;;;24.10;99.90;;;;;;4902822;29;20184;-83
2021/06/28 09:54:15;;;;;;;10.40;6.73;;;24.10;99.90;;;;;;4911836;29;20211;-84
2021/06/28 09:56:44;;;;;;;11.67;6.67;;;24.20;99.90;;;;;;4903879;29;20188;-83
2021/06/28 09:59:36;;;;;;;7.60;5.30;;;24.10;99.90;;;;;;4905875;29;20216;-84
2021/06/28 10:02:16;;;;;;;7.73;5.73;;;24.20;99.90;;;;;;4908413;29;20220;-84
2021/06/28 10:05:05;;;;;;;7.03;3.80;;;24.40;99.90;;;;;;4920601;29;20182;-83
2021/06/28 10:07:35;;;;;;;5.83;3.60;;;24.40;99.90;;;;;;4918122;29;20240;-83
2021/06/28 10:10:08;;;;;;;5.17;3.93;;;24.40;99.90;;;;;;4922084;29;20196;-84
2021/06/28 10:12:36;;;;;;;5.47;3.30;;;24.50;99.90;;;;;;4916651;29;20191;-83
2021/06/28 10:15:07;;;;;;;6.23;3.63;;;24.60;99.90;;;;;;4919632;29;20583;-84
2021/06/28 10:17:33;;;;;;;6.17;3.60;;;24.70;99.90;;;;;;4903774;29;20207;-84
2021/06/28 10:19:59;;;;;;;4.40;3.10;;;25.00;99.90;;;;;;4930767;29;20247;-84
2021/06/28 10:22:25;;;;;;;5.63;3.50;;;25.10;99.90;;;;;;4917441;29;20654;-84
2021/06/28 10:24:51;;;;;;;7.50;4.17;;;25.10;99.90;;;;;;4920095;29;20199;-83
2021/06/28 10:27:18;;;;;;;8.70;4.90;;;25.10;99.90;;;;;;4912562;29;20201;-84
2021/06/28 10:29:44;;;;;;;7.40;4.53;;;25.00;99.90;;;;;;4908150;29;20192;-84
2021/06/28 10:32:12;;;;;;;7.10;5.13;;;25.00;99.90;;;;;;4922515;29;20260;-84
2021/06/28 10:34:39;;;;;;;7.73;5.13;;;24.90;99.90;;;;;;4920954;29;20195;-84
2021/06/28 10:37:30;;;;;;;7.00;4.40;;;24.80;99.90;;;;;;4927063;29;20302;-83
2021/06/28 10:39:59;;;;;;;7.50;4.67;;;24.90;99.90;;;;;;4918083;29;20200;-84
2021/06/28 10:42:32;;;;;;;11.47;4.77;;;24.80;99.90;;;;;;4902089;29;20193;-84
2021/06/28 10:45:00;;;;;;;8.97;4.40;;;24.70;99.90;;;;;;4907243;29;20224;-84
2021/06/28 10:47:28;;;;;;;6.53;4.90;;;24.70;99.90;;;;;;4930825;29;20266;-84
2021/06/28 10:49:56;;;;;;;10.47;3.90;;;24.80;99.90;;;;;;4920653;29;20215;-84
2021/06/28 10:52:34;;;;;;;4.97;3.03;;;24.80;99.90;;;;;;4925896;29;20195;-84
2021/06/28 10:55:01;;;;;;;6.43;3.87;;;24.80;99.90;;;;;;4914611;29;20282;-84
2021/06/28 10:57:41;;;;;;;5.57;3.40;;;24.90;99.90;;;;;;4932305;29;20211;-84
2021/06/28 11:00:08;;;;;;;4.37;3.70;;;24.90;99.90;;;;;;4904233;29;20195;-83
2021/06/28 11:02:40;;;;;;;7.03;3.93;;;24.90;99.90;;;;;;4906701;29;20220;-84
2021/06/28 11:05:08;;;;;;;6.20;4.30;;;24.90;99.90;;;;;;4918183;29;20686;-84
2021/06/28 11:07:47;;;;;;;4.77;3.37;;;25.00;99.90;;;;;;4915762;29;20563;-84
2021/06/28 11:10:14;;;;;;;3.33;2.70;;;25.00;99.90;;;;;;4905463;29;20196;-84
2021/06/28 11:12:41;;;;;;;5.43;3.00;;;25.10;99.90;;;;;;4908417;29;20184;-83
2021/06/28 11:15:25;;;;;;;6.10;2.73;;;25.10;99.60;;;;;;4918561;29;20189;-84
2021/06/28 11:17:57;;;;;;;6.80;3.40;;;25.00;99.80;;;;;;4920509;29;20201;-83
2021/06/28 11:20:39;;;;;;;7.60;3.33;;;25.00;99.90;;;;;;4914935;29;20188;-84
2021/06/28 11:23:14;;;;;;;7.57;4.40;;;25.10;99.90;;;;;;4923365;29;20672;-84
2021/06/28 11:25:42;;;;;;;7.97;3.47;;;25.20;99.90;;;;;;4926654;29;20666;-84
2021/06/28 11:28:12;;;;;;;5.93;3.43;;;25.40;99.90;;;;;;4919166;29;20189;-83
2021/06/28 11:30:52;;;;;;;8.30;3.80;;;25.70;99.90;;;;;;4903579;29;20201;-84
2021/06/28 11:33:31;;;;;;;6.20;3.53;;;25.90;99.50;;;;;;4917058;29;20264;-84
2021/06/28 11:35:56;;;;;;;6.33;4.30;;;26.20;99.60;;;;;;4901519;29;20201;-84
2021/06/28 11:38:32;;;;;;;6.23;4.07;;;26.50;99.50;;;;;;4917080;29;20603;-83
2021/06/28 11:41:20;;;;;;;10.17;4.47;;;26.70;99.10;;;;;;4917915;29;20197;-84
2021/06/28 11:43:51;;;;;;;5.70;4.00;;;26.80;98.90;;;;;;4910252;29;20243;-83
2021/06/28 11:46:36;;;;;;;3.87;2.40;;;27.00;98.40;;;;;;4914399;29;20194;-84
2021/06/28 11:49:03;;;;;;;4.37;3.07;;;27.00;96.60;;;;;;4916789;29;20192;-84
2021/06/28 11:51:34;;;;;;;6.80;3.67;;;27.00;97.60;;;;;;4918034;29;20331;-84
2021/06/28 11:54:03;;;;;;;6.03;4.33;;;26.90;98.00;;;;;;4901859;29;20269;-84
2021/06/28 11:56:35;;;;;;;6.57;4.17;;;26.70;98.30;;;;;;4930226;29;20172;-83
2021/06/28 11:59:10;;;;;;;5.50;3.67;;;26.30;99.10;;;;;;4916332;29;20682;-84
2021/06/28 12:01:43;;;;;;;7.63;3.33;;;26.00;99.30;;;;;;4913190;29;20228;-84
2021/06/28 12:04:16;;;;;;;5.83;3.87;;;26.00;99.70;;;;;;4925922;29;20187;-84
2021/06/28 12:06:42;;;;;;;4.83;4.00;;;25.90;99.50;;;;;;4928518;29;20186;-83
2021/06/28 12:09:13;;;;;;;4.80;3.80;;;25.80;99.90;;;;;;4903935;29;20200;-84
2021/06/28 12:11:52;;;;;;;7.13;4.50;;;25.70;99.90;;;;;;4905046;29;20588;-84
2021/06/28 12:14:39;;;;;;;8.27;4.40;;;25.30;99.90;;;;;;4916846;29;20192;-84
2021/06/28 12:17:24;;;;;;;6.70;3.80;;;25.00;99.90;;;;;;4898050;29;20247;-84
2021/06/28 12:19:52;;;;;;;8.60;4.50;;;24.80;99.90;;;;;;4913019;29;20235;-83
2021/06/28 12:22:24;;;;;;;4.33;3.90;;;24.50;99.90;;;;;;4921771;29;20192;-83
2021/06/28 12:24:59;;;;;;;5.93;3.53;;;24.30;99.90;;;;;;4913961;29;20217;-83
2021/06/28 12:27:30;;;;;;;6.50;3.20;;;24.20;99.90;;;;;;4900491;29;20195;-84
2021/06/28 12:29:57;;;;;;;6.07;3.47;;;24.40;99.90;;;;;;4902599;29;20208;-84
2021/06/28 12:32:25;;;;;;;2.63;2.40;;;24.50;99.90;;;;;;4900373;29;20195;-84
2021/06/28 12:34:52;;;;;;;3.10;2.03;;;24.80;99.90;;;;;;4918527;29;20185;-83
2021/06/28 12:37:32;;;;;;;2.27;1.93;;;25.00;99.90;;;;;;4903052;29;20784;-85
2021/06/28 12:40:30;;;;;;;5.30;2.40;;;25.30;99.70;;;;;;4918703;29;20231;-83
2021/06/28 12:43:01;;;;;;;3.70;1.80;;;25.70;99.10;;;;;;4919048;29;20204;-83
2021/06/28 12:45:33;;;;;;;3.27;2.03;;;26.00;98.30;;;;;;4907316;29;20269;-84
2021/06/28 12:48:02;;;;;;;3.63;2.10;;;26.30;98.20;;;;;;4906218;29;20228;-84